sensor_id;sensor_type;location;lat;lon;timestamp;pressure;altitude;pressure_sealevel;temperature;humidity
72558;BME280;60583;50.094;8.748;2023-11-21T00:01:35;99691.28;;;9.55;100.00
72558;BME280;60583;50.094;8.748;2023-11-21T00:04:00;99676.75;;;9.57;100.00
72558;BME280;60583;50.094;8.748;2023-11-21T00:06:26;99681.25;;;9.57;100.00
72558;BME280;60583;50.094;8.748;2023-11-21T00:08:52;99685.13;;;9.61;100.00
72558;BME280;60583;50.094;8.748;2023-11-21T00:11:17;99669.16;;;9.61;100.00
72558;BME280;60583;50.094;8.748;2023-11-21T00:13:43;99694.75;;;9.62;100.00
72558;BME280;60583;50.094;8.748;2023-11-21T00:16:09;99703.09;;;9.79;100.00
72558;BME280;60583;50.094;8.748;2023-11-21T00:18:34;99664.69;;;9.42;100.00
72558;BME280;60583;50.094;8.748;2023-11-21T00:20:59;99678.81;;;9.42;100.00
72558;BME280;60583;50.094;8.748;2023-11-21T00:23:25;99694.53;;;9.57;100.00
72558;BME280;60583;50.094;8.748;2023-11-21T00:25:50;99691.06;;;9.63;100.00
72558;BME280;60583;50.094;8.748;2023-11-21T00:28:16;99653.47;;;9.46;100.00
72558;BME280;60583;50.094;8.748;2023-11-21T00:30:41;99706.41;;;9.68;100.00
72558;BME280;60583;50.094;8.748;2023-11-21T00:33:07;99673.69;;;9.54;100.00
72558;BME280;60583;50.094;8.748;2023-11-21T00:35:32;99669.00;;;9.43;100.00
72558;BME280;60583;50.094;8.748;2023-11-21T00:37:57;99700.28;;;9.60;100.00
72558;BME280;60583;50.094;8.748;2023-11-21T00:40:23;99685.56;;;9.58;100.00
72558;BME280;60583;50.094;8.748;2023-11-21T00:42:49;99693.72;;;9.63;100.00
72558;BME280;60583;50.094;8.748;2023-11-21T00:45:15;99681.03;;;9.65;100.00
72558;BME280;60583;50.094;8.748;2023-11-21T00:47:41;99679.00;;;9.60;100.00
72558;BME280;60583;50.094;8.748;2023-11-21T00:50:06;99701.91;;;9.68;100.00
72558;BME280;60583;50.094;8.748;2023-11-21T00:52:32;99644.28;;;9.36;100.00
72558;BME280;60583;50.094;8.748;2023-11-21T00:54:58;99670.41;;;9.52;100.00
72558;BME280;60583;50.094;8.748;2023-11-21T00:57:26;99691.25;;;9.68;100.00
72558;BME280;60583;50.094;8.748;2023-11-21T00:59:52;99675.69;;;9.65;100.00
72558;BME280;60583;50.094;8.748;2023-11-21T01:02:17;99682.25;;;9.69;100.00
72558;BME280;60583;50.094;8.748;2023-11-21T01:04:43;99685.09;;;9.74;100.00
72558;BME280;60583;50.094;8.748;2023-11-21T01:07:09;99676.94;;;9.69;100.00
72558;BME280;60583;50.094;8.748;2023-11-21T01:09:34;99694.06;;;9.86;100.00
72558;BME280;60583;50.094;8.748;2023-11-21T01:12:00;99689.97;;;9.77;100.00
72558;BME280;60583;50.094;8.748;2023-11-21T01:14:26;99681.81;;;9.72;100.00
72558;BME280;60583;50.094;8.748;2023-11-21T01:16:52;99673.66;;;9.60;100.00
72558;BME280;60583;50.094;8.748;2023-11-21T01:19:17;99714.75;;;9.84;100.00
72558;BME280;60583;50.094;8.748;2023-11-21T01:21:43;99700.44;;;9.72;100.00
72558;BME280;60583;50.094;8.748;2023-11-21T01:24:08;99702.31;;;9.72;100.00
72558;BME280;60583;50.094;8.748;2023-11-21T01:26:34;99715.19;;;9.81;100.00
72558;BME280;60583;50.094;8.748;2023-11-21T01:28:59;99736.25;;;9.89;100.00
72558;BME280;60583;50.094;8.748;2023-11-21T01:31:25;99719.63;;;9.87;100.00
72558;BME280;60583;50.094;8.748;2023-11-21T01:33:54;99715.38;;;9.80;100.00
72558;BME280;60583;50.094;8.748;2023-11-21T01:36:20;99685.75;;;9.63;100.00
72558;BME280;60583;50.094;8.748;2023-11-21T01:38:46;99717.84;;;9.81;100.00
72558;BME280;60583;50.094;8.748;2023-11-21T01:41:14;99695.38;;;9.64;100.00
72558;BME280;60583;50.094;8.748;2023-11-21T01:43:40;99717.44;;;9.78;100.00
72558;BME280;60583;50.094;8.748;2023-11-21T01:46:06;99705.19;;;9.63;100.00
72558;BME280;60583;50.094;8.748;2023-11-21T01:48:32;99703.56;;;9.49;100.00
72558;BME280;60583;50.094;8.748;2023-11-21T01:50:58;99708.03;;;9.62;100.00
72558;BME280;60583;50.094;8.748;2023-11-21T01:53:26;99733.22;;;9.79;100.00
72558;BME280;60583;50.094;8.748;2023-11-21T01:55:55;99716.00;;;9.75;100.00
72558;BME280;60583;50.094;8.748;2023-11-21T01:58:21;99708.44;;;9.72;100.00
72558;BME280;60583;50.094;8.748;2023-11-21T02:00:47;99721.94;;;9.77;100.00
72558;BME280;60583;50.094;8.748;2023-11-21T02:03:15;99721.56;;;9.60;100.00
72558;BME280;60583;50.094;8.748;2023-11-21T02:05:41;99729.78;;;9.59;100.00
72558;BME280;60583;50.094;8.748;2023-11-21T02:08:07;99727.69;;;9.74;100.00
72558;BME280;60583;50.094;8.748;2023-11-21T02:10:34;99697.88;;;9.39;100.00
72558;BME280;60583;50.094;8.748;2023-11-21T02:13:02;99708.94;;;9.43;100.00
72558;BME280;60583;50.094;8.748;2023-11-21T02:15:28;99730.00;;;9.51;100.00
72558;BME280;60583;50.094;8.748;2023-11-21T02:17:54;99704.41;;;9.37;100.00
72558;BME280;60583;50.094;8.748;2023-11-21T02:20:21;99749.41;;;9.71;100.00
72558;BME280;60583;50.094;8.748;2023-11-21T02:22:52;99737.13;;;9.63;100.00
72558;BME280;60583;50.094;8.748;2023-11-21T02:25:26;99749.81;;;9.68;100.00
72558;BME280;60583;50.094;8.748;2023-11-21T02:27:56;99745.50;;;9.67;100.00
72558;BME280;60583;50.094;8.748;2023-11-21T02:30:22;99741.63;;;9.63;100.00
72558;BME280;60583;50.094;8.748;2023-11-21T02:32:51;99739.22;;;9.42;100.00
72558;BME280;60583;50.094;8.748;2023-11-21T02:35:18;99753.13;;;9.50;100.00
72558;BME280;60583;50.094;8.748;2023-11-21T02:37:44;99737.97;;;9.51;100.00
72558;BME280;60583;50.094;8.748;2023-11-21T02:40:10;99735.31;;;9.51;100.00
72558;BME280;60583;50.094;8.748;2023-11-21T02:42:38;99724.66;;;9.44;100.00
72558;BME280;60583;50.094;8.748;2023-11-21T02:45:06;99748.63;;;9.51;100.00
72558;BME280;60583;50.094;8.748;2023-11-21T02:47:31;99745.75;;;9.59;100.00
72558;BME280;60583;50.094;8.748;2023-11-21T02:49:56;99749.03;;;9.61;100.00
72558;BME280;60583;50.094;8.748;2023-11-21T02:52:22;99737.56;;;9.54;100.00
72558;BME280;60583;50.094;8.748;2023-11-21T02:54:47;99715.06;;;9.37;100.00
72558;BME280;60583;50.094;8.748;2023-11-21T02:57:13;99740.44;;;9.59;100.00
72558;BME280;60583;50.094;8.748;2023-11-21T02:59:38;99748.63;;;9.51;100.00
72558;BME280;60583;50.094;8.748;2023-11-21T03:02:04;99678.09;;;8.96;100.00
72558;BME280;60583;50.094;8.748;2023-11-21T03:04:29;99711.81;;;9.22;100.00
72558;BME280;60583;50.094;8.748;2023-11-21T03:06:57;99737.78;;;9.33;100.00
72558;BME280;60583;50.094;8.748;2023-11-21T03:09:23;99744.53;;;9.35;100.00
72558;BME280;60583;50.094;8.748;2023-11-21T03:11:48;99742.91;;;9.28;100.00
72558;BME280;60583;50.094;8.748;2023-11-21T03:14:14;99677.47;;;8.87;100.00
72558;BME280;60583;50.094;8.748;2023-11-21T03:16:39;99745.38;;;9.36;100.00
72558;BME280;60583;50.094;8.748;2023-11-21T03:19:06;99740.69;;;9.31;100.00
72558;BME280;60583;50.094;8.748;2023-11-21T03:21:33;99739.66;;;9.39;100.00
72558;BME280;60583;50.094;8.748;2023-11-21T03:23:58;99749.44;;;9.32;100.00
72558;BME280;60583;50.094;8.748;2023-11-21T03:26:25;99748.25;;;9.28;100.00
72558;BME280;60583;50.094;8.748;2023-11-21T03:28:50;99756.63;;;9.31;100.00
72558;BME280;60583;50.094;8.748;2023-11-21T03:31:19;99749.06;;;9.28;100.00
72558;BME280;60583;50.094;8.748;2023-11-21T03:33:45;99761.75;;;9.33;100.00
72558;BME280;60583;50.094;8.748;2023-11-21T03:36:11;99739.25;;;9.16;100.00
72558;BME280;60583;50.094;8.748;2023-11-21T03:38:36;99762.16;;;9.30;100.00
72558;BME280;60583;50.094;8.748;2023-11-21T03:41:03;99773.00;;;9.22;100.00
72558;BME280;60583;50.094;8.748;2023-11-21T03:43:29;99730.84;;;8.99;100.00
72558;BME280;60583;50.094;8.748;2023-11-21T03:45:54;99746.41;;;9.09;100.00
72558;BME280;60583;50.094;8.748;2023-11-21T03:48:19;99770.31;;;9.22;100.00
72558;BME280;60583;50.094;8.748;2023-11-21T03:50:45;99742.53;;;8.98;100.00
72558;BME280;60583;50.094;8.748;2023-11-21T03:53:14;99748.66;;;8.98;100.00
72558;BME280;60583;50.094;8.748;2023-11-21T03:55:39;99770.97;;;9.11;100.00
72558;BME280;60583;50.094;8.748;2023-11-21T03:58:04;99756.63;;;9.05;100.00
72558;BME280;60583;50.094;8.748;2023-11-21T04:00:30;99721.66;;;8.75;100.00
72558;BME280;60583;50.094;8.748;2023-11-21T04:02:56;99726.34;;;8.86;100.00
72558;BME280;60583;50.094;8.748;2023-11-21T04:05:23;99749.88;;;9.03;100.00
72558;BME280;60583;50.094;8.748;2023-11-21T04:07:51;99788.75;;;9.30;100.00
72558;BME280;60583;50.094;8.748;2023-11-21T04:10:18;99785.47;;;9.34;100.00
72558;BME280;60583;50.094;8.748;2023-11-21T04:12:43;99771.56;;;9.26;100.00
72558;BME280;60583;50.094;8.748;2023-11-21T04:15:09;99778.72;;;9.38;100.00
72558;BME280;60583;50.094;8.748;2023-11-21T04:17:35;99793.25;;;9.55;100.00
72558;BME280;60583;50.094;8.748;2023-11-21T04:20:03;99796.31;;;9.46;100.00
72558;BME280;60583;50.094;8.748;2023-11-21T04:22:33;99782.59;;;9.29;100.00
72558;BME280;60583;50.094;8.748;2023-11-21T04:24:58;99781.81;;;9.29;100.00
72558;BME280;60583;50.094;8.748;2023-11-21T04:27:24;99797.97;;;9.40;100.00
72558;BME280;60583;50.094;8.748;2023-11-21T04:29:49;99740.88;;;9.10;100.00
72558;BME280;60583;50.094;8.748;2023-11-21T04:32:15;99799.63;;;9.41;100.00
72558;BME280;60583;50.094;8.748;2023-11-21T04:34:40;99765.00;;;9.22;100.00
72558;BME280;60583;50.094;8.748;2023-11-21T04:37:06;99796.94;;;9.41;100.00
72558;BME280;60583;50.094;8.748;2023-11-21T04:39:31;99808.19;;;9.50;100.00
72558;BME280;60583;50.094;8.748;2023-11-21T04:41:57;99751.50;;;9.17;100.00
72558;BME280;60583;50.094;8.748;2023-11-21T04:44:22;99802.25;;;9.48;100.00
72558;BME280;60583;50.094;8.748;2023-11-21T04:46:47;99793.06;;;9.31;100.00
72558;BME280;60583;50.094;8.748;2023-11-21T04:49:14;99818.44;;;9.46;100.00
72558;BME280;60583;50.094;8.748;2023-11-21T04:51:39;99792.22;;;9.30;100.00
72558;BME280;60583;50.094;8.748;2023-11-21T04:54:05;99816.78;;;9.45;100.00
72558;BME280;60583;50.094;8.748;2023-11-21T04:56:31;99838.72;;;9.54;100.00
72558;BME280;60583;50.094;8.748;2023-11-21T04:58:56;99811.69;;;9.31;100.00
72558;BME280;60583;50.094;8.748;2023-11-21T05:01:22;99848.72;;;9.52;100.00
72558;BME280;60583;50.094;8.748;2023-11-21T05:03:48;99829.69;;;9.42;100.00
72558;BME280;60583;50.094;8.748;2023-11-21T05:06:14;99846.28;;;9.44;100.00
72558;BME280;60583;50.094;8.748;2023-11-21T05:08:39;99828.47;;;9.31;100.00
72558;BME280;60583;50.094;8.748;2023-11-21T05:11:05;99834.59;;;9.45;100.00
72558;BME280;60583;50.094;8.748;2023-11-21T05:13:34;99836.44;;;9.51;100.00
72558;BME280;60583;50.094;8.748;2023-11-21T05:15:59;99843.78;;;9.62;100.00
72558;BME280;60583;50.094;8.748;2023-11-21T05:18:25;99850.56;;;9.58;100.00
72558;BME280;60583;50.094;8.748;2023-11-21T05:20:55;99847.91;;;9.58;100.00
72558;BME280;60583;50.094;8.748;2023-11-21T05:23:21;99832.13;;;9.50;100.00
72558;BME280;60583;50.094;8.748;2023-11-21T05:25:46;99846.47;;;9.62;100.00
72558;BME280;60583;50.094;8.748;2023-11-21T05:28:12;99859.16;;;9.60;100.00
72558;BME280;60583;50.094;8.748;2023-11-21T05:30:37;99853.84;;;9.47;100.00
72558;BME280;60583;50.094;8.748;2023-11-21T05:33:04;99862.03;;;9.52;100.00
72558;BME280;60583;50.094;8.748;2023-11-21T05:35:30;99883.31;;;9.65;100.00
72558;BME280;60583;50.094;8.748;2023-11-21T05:37:56;99873.91;;;9.56;100.00
72558;BME280;60583;50.094;8.748;2023-11-21T05:40:21;99842.78;;;9.43;100.00
72558;BME280;60583;50.094;8.748;2023-11-21T05:42:47;99869.81;;;9.60;100.00
72558;BME280;60583;50.094;8.748;2023-11-21T05:45:13;99880.47;;;9.60;100.00
72558;BME280;60583;50.094;8.748;2023-11-21T05:47:41;99870.66;;;9.54;100.00
72558;BME280;60583;50.094;8.748;2023-11-21T05:50:08;99885.78;;;9.60;100.00
72558;BME280;60583;50.094;8.748;2023-11-21T05:52:36;99860.38;;;9.44;100.00
72558;BME280;60583;50.094;8.748;2023-11-21T05:55:02;99863.66;;;9.40;100.00
72558;BME280;60583;50.094;8.748;2023-11-21T05:57:28;99851.41;;;9.39;100.00
72558;BME280;60583;50.094;8.748;2023-11-21T05:59:53;99892.53;;;9.62;100.00
72558;BME280;60583;50.094;8.748;2023-11-21T06:02:18;99904.22;;;9.68;100.00
72558;BME280;60583;50.094;8.748;2023-11-21T06:04:44;99908.72;;;9.68;100.00
72558;BME280;60583;50.094;8.748;2023-11-21T06:07:09;99896.03;;;9.63;100.00
72558;BME280;60583;50.094;8.748;2023-11-21T06:09:35;99896.44;;;9.60;100.00
72558;BME280;60583;50.094;8.748;2023-11-21T06:12:00;99900.13;;;9.59;100.00
72558;BME280;60583;50.094;8.748;2023-11-21T06:14:26;99894.78;;;9.46;100.00
72558;BME280;60583;50.094;8.748;2023-11-21T06:16:51;99919.78;;;9.58;100.00
72558;BME280;60583;50.094;8.748;2023-11-21T06:19:17;99920.19;;;9.55;100.00
72558;BME280;60583;50.094;8.748;2023-11-21T06:21:46;99907.47;;;9.50;100.00
72558;BME280;60583;50.094;8.748;2023-11-21T06:24:12;99864.03;;;9.17;100.00
72558;BME280;60583;50.094;8.748;2023-11-21T06:26:37;99933.47;;;9.48;100.00
72558;BME280;60583;50.094;8.748;2023-11-21T06:29:03;99909.94;;;9.39;100.00
72558;BME280;60583;50.094;8.748;2023-11-21T06:31:29;99925.69;;;9.40;100.00
72558;BME280;60583;50.094;8.748;2023-11-21T06:33:55;99934.31;;;9.49;100.00
72558;BME280;60583;50.094;8.748;2023-11-21T06:36:20;99942.47;;;9.41;100.00
72558;BME280;60583;50.094;8.748;2023-11-21T06:38:46;99934.28;;;9.36;100.00
72558;BME280;60583;50.094;8.748;2023-11-21T06:41:11;99946.97;;;9.47;100.00
72558;BME280;60583;50.094;8.748;2023-11-21T06:43:40;99958.25;;;9.49;100.00
72558;BME280;60583;50.094;8.748;2023-11-21T06:46:05;99950.69;;;9.46;100.00
72558;BME280;60583;50.094;8.748;2023-11-21T06:48:31;99909.06;;;9.25;100.00
72558;BME280;60583;50.094;8.748;2023-11-21T06:50:56;99962.72;;;9.42;100.00
72558;BME280;60583;50.094;8.748;2023-11-21T06:53:22;99974.66;;;9.59;100.00
72558;BME280;60583;50.094;8.748;2023-11-21T06:55:47;99972.56;;;9.54;100.00
72558;BME280;60583;50.094;8.748;2023-11-21T06:58:12;99987.97;;;9.59;100.00
72558;BME280;60583;50.094;8.748;2023-11-21T07:00:40;99981.59;;;9.53;100.00
72558;BME280;60583;50.094;8.748;2023-11-21T07:03:05;99994.31;;;9.58;100.00
72558;BME280;60583;50.094;8.748;2023-11-21T07:05:30;100001.06;;;9.54;100.00
72558;BME280;60583;50.094;8.748;2023-11-21T07:07:56;99985.84;;;9.35;100.00
72558;BME280;60583;50.094;8.748;2023-11-21T07:10:21;99999.19;;;9.48;100.00
72558;BME280;60583;50.094;8.748;2023-11-21T07:12:47;100007.34;;;9.40;100.00
72558;BME280;60583;50.094;8.748;2023-11-21T07:15:12;100003.69;;;9.41;100.00
72558;BME280;60583;50.094;8.748;2023-11-21T07:17:38;99985.56;;;9.17;100.00
72558;BME280;60583;50.094;8.748;2023-11-21T07:20:04;100020.03;;;9.44;100.00
72558;BME280;60583;50.094;8.748;2023-11-21T07:22:29;100021.28;;;9.42;100.00
72558;BME280;60583;50.094;8.748;2023-11-21T07:24:55;99987.66;;;9.21;100.00
72558;BME280;60583;50.094;8.748;2023-11-21T07:27:22;100030.34;;;9.54;100.00
72558;BME280;60583;50.094;8.748;2023-11-21T07:29:47;100028.63;;;9.40;100.00
72558;BME280;60583;50.094;8.748;2023-11-21T07:32:14;100040.56;;;9.50;100.00
72558;BME280;60583;50.094;8.748;2023-11-21T07:34:40;100027.25;;;9.44;100.00
72558;BME280;60583;50.094;8.748;2023-11-21T07:37:07;100038.50;;;9.52;100.00
72558;BME280;60583;50.094;8.748;2023-11-21T07:39:35;100047.53;;;9.51;100.00
72558;BME280;60583;50.094;8.748;2023-11-21T07:42:01;100030.06;;;9.42;100.00
72558;BME280;60583;50.094;8.748;2023-11-21T07:44:28;100035.63;;;9.41;100.00
72558;BME280;60583;50.094;8.748;2023-11-21T07:46:54;100031.94;;;9.48;100.00
72558;BME280;60583;50.094;8.748;2023-11-21T07:49:23;100039.34;;;9.53;100.00
72558;BME280;60583;50.094;8.748;2023-11-21T07:51:49;100022.72;;;9.44;100.00
72558;BME280;60583;50.094;8.748;2023-11-21T07:54:14;100035.22;;;9.50;100.00
72558;BME280;60583;50.094;8.748;2023-11-21T07:56:41;100046.31;;;9.54;100.00
72558;BME280;60583;50.094;8.748;2023-11-21T07:59:06;100048.53;;;9.57;100.00
72558;BME280;60583;50.094;8.748;2023-11-21T08:01:32;100031.13;;;9.41;100.00
72558;BME280;60583;50.094;8.748;2023-11-21T08:03:58;100029.28;;;9.48;100.00
72558;BME280;60583;50.094;8.748;2023-11-21T08:06:27;100006.13;;;9.36;100.00
72558;BME280;60583;50.094;8.748;2023-11-21T08:08:52;100059.00;;;9.65;100.00
72558;BME280;60583;50.094;8.748;2023-11-21T08:11:17;100072.16;;;9.73;100.00
72558;BME280;60583;50.094;8.748;2023-11-21T08:13:44;100069.50;;;9.73;100.00
72558;BME280;60583;50.094;8.748;2023-11-21T08:16:11;100036.88;;;9.51;100.00
72558;BME280;60583;50.094;8.748;2023-11-21T08:18:37;100043.81;;;9.52;100.00
72558;BME280;60583;50.094;8.748;2023-11-21T08:21:03;100062.13;;;9.75;100.00
72558;BME280;60583;50.094;8.748;2023-11-21T08:23:29;100059.84;;;9.59;100.00
72558;BME280;60583;50.094;8.748;2023-11-21T08:25:55;100082.34;;;9.63;100.00
72558;BME280;60583;50.094;8.748;2023-11-21T08:28:21;100053.63;;;9.45;100.00
72558;BME280;60583;50.094;8.748;2023-11-21T08:30:52;100088.91;;;9.67;100.00
72558;BME280;60583;50.094;8.748;2023-11-21T08:33:17;100089.34;;;9.64;100.00
72558;BME280;60583;50.094;8.748;2023-11-21T08:35:44;100081.91;;;9.46;100.00
72558;BME280;60583;50.094;8.748;2023-11-21T08:38:09;100079.81;;;9.42;100.00
72558;BME280;60583;50.094;8.748;2023-11-21T08:40:35;100047.78;;;9.16;100.00
72558;BME280;60583;50.094;8.748;2023-11-21T08:43:01;100041.88;;;9.20;100.00
72558;BME280;60583;50.094;8.748;2023-11-21T08:45:30;100106.50;;;9.55;100.00
72558;BME280;60583;50.094;8.748;2023-11-21T08:47:55;100072.41;;;9.31;100.00
72558;BME280;60583;50.094;8.748;2023-11-21T08:50:20;100078.75;;;9.30;100.00
72558;BME280;60583;50.094;8.748;2023-11-21T08:52:46;100082.25;;;9.37;100.00
72558;BME280;60583;50.094;8.748;2023-11-21T08:55:11;100096.22;;;9.45;100.00
72558;BME280;60583;50.094;8.748;2023-11-21T08:57:44;100109.59;;;9.58;100.00
72558;BME280;60583;50.094;8.748;2023-11-21T09:00:11;100121.28;;;9.71;100.00
72558;BME280;60583;50.094;8.748;2023-11-21T09:02:40;100130.34;;;9.76;100.00
72558;BME280;60583;50.094;8.748;2023-11-21T09:05:12;100128.69;;;9.75;100.00
72558;BME280;60583;50.094;8.748;2023-11-21T09:07:39;100130.72;;;9.67;100.00
72558;BME280;60583;50.094;8.748;2023-11-21T09:10:06;100128.84;;;9.67;100.00
72558;BME280;60583;50.094;8.748;2023-11-21T09:12:36;100150.19;;;9.74;100.00
72558;BME280;60583;50.094;8.748;2023-11-21T09:15:05;100108.84;;;9.37;100.00
72558;BME280;60583;50.094;8.748;2023-11-21T09:17:32;100159.78;;;9.68;100.00
72558;BME280;60583;50.094;8.748;2023-11-21T09:19:59;100154.47;;;9.68;100.00
72558;BME280;60583;50.094;8.748;2023-11-21T09:22:24;100134.94;;;9.54;100.00
72558;BME280;60583;50.094;8.748;2023-11-21T09:24:51;100163.47;;;9.67;100.00
72558;BME280;60583;50.094;8.748;2023-11-21T09:27:17;100146.88;;;9.65;100.00
72558;BME280;60583;50.094;8.748;2023-11-21T09:29:43;100146.50;;;9.75;100.00
72558;BME280;60583;50.094;8.748;2023-11-21T09:32:08;100119.63;;;9.63;100.00
72558;BME280;60583;50.094;8.748;2023-11-21T09:34:38;100155.38;;;9.88;100.00
72558;BME280;60583;50.094;8.748;2023-11-21T09:37:06;100173.00;;;10.02;100.00
72558;BME280;60583;50.094;8.748;2023-11-21T09:39:32;100152.53;;;9.96;100.00
72558;BME280;60583;50.094;8.748;2023-11-21T09:44:51;100145.16;;;9.92;100.00
72558;BME280;60583;50.094;8.748;2023-11-21T09:47:22;100157.47;;;9.99;100.00
72558;BME280;60583;50.094;8.748;2023-11-21T09:49:48;100159.09;;;10.00;100.00
72558;BME280;60583;50.094;8.748;2023-11-21T09:52:28;100185.31;;;10.03;100.00
72558;BME280;60583;50.094;8.748;2023-11-21T09:54:55;100170.13;;;9.97;100.00
72558;BME280;60583;50.094;8.748;2023-11-21T09:57:24;100192.00;;;10.34;99.90
72558;BME280;60583;50.094;8.748;2023-11-21T09:59:51;100193.56;;;11.79;93.16
72558;BME280;60583;50.094;8.748;2023-11-21T10:02:17;100169.81;;;12.96;86.51
72558;BME280;60583;50.094;8.748;2023-11-21T10:04:44;100195.91;;;14.04;80.06
72558;BME280;60583;50.094;8.748;2023-11-21T10:07:11;100195.59;;;14.83;76.39
72558;BME280;60583;50.094;8.748;2023-11-21T10:09:38;100189.81;;;15.56;71.14
72558;BME280;60583;50.094;8.748;2023-11-21T10:12:05;100196.59;;;16.10;69.90
72558;BME280;60583;50.094;8.748;2023-11-21T10:14:34;100208.78;;;16.40;68.21
72558;BME280;60583;50.094;8.748;2023-11-21T10:17:00;100203.84;;;16.94;65.68
72558;BME280;60583;50.094;8.748;2023-11-21T10:19:27;100204.28;;;17.57;62.97
72558;BME280;60583;50.094;8.748;2023-11-21T10:21:54;100192.63;;;18.17;59.55
72558;BME280;60583;50.094;8.748;2023-11-21T10:24:19;100199.97;;;19.01;57.01
72558;BME280;60583;50.094;8.748;2023-11-21T10:26:45;100200.47;;;19.72;54.72
72558;BME280;60583;50.094;8.748;2023-11-21T10:29:14;100215.09;;;18.97;54.89
72558;BME280;60583;50.094;8.748;2023-11-21T10:31:42;100220.22;;;18.67;55.90
72558;BME280;60583;50.094;8.748;2023-11-21T10:34:18;100223.75;;;18.99;55.58
72558;BME280;60583;50.094;8.748;2023-11-21T10:36:44;100216.50;;;19.79;53.32
72558;BME280;60583;50.094;8.748;2023-11-21T10:39:14;100218.66;;;20.49;52.30
72558;BME280;60583;50.094;8.748;2023-11-21T10:41:44;100194.25;;;20.39;51.17
72558;BME280;60583;50.094;8.748;2023-11-21T10:44:10;100229.59;;;21.04;50.24
72558;BME280;60583;50.094;8.748;2023-11-21T10:46:36;100212.25;;;21.20;49.04
72558;BME280;60583;50.094;8.748;2023-11-21T10:49:01;100189.44;;;20.96;48.58
72558;BME280;60583;50.094;8.748;2023-11-21T10:51:27;100211.38;;;20.99;48.00
72558;BME280;60583;50.094;8.748;2023-11-21T10:53:53;100195.84;;;20.24;49.54
72558;BME280;60583;50.094;8.748;2023-11-21T10:56:23;100207.03;;;20.68;48.07
72558;BME280;60583;50.094;8.748;2023-11-21T10:58:49;100202.41;;;21.65;46.29
72558;BME280;60583;50.094;8.748;2023-11-21T11:01:18;100204.56;;;21.62;44.60
72558;BME280;60583;50.094;8.748;2023-11-21T11:03:44;100188.75;;;22.00;43.71
72558;BME280;60583;50.094;8.748;2023-11-21T11:06:10;100188.81;;;22.34;43.28
72558;BME280;60583;50.094;8.748;2023-11-21T11:08:37;100195.03;;;22.88;41.98
72558;BME280;60583;50.094;8.748;2023-11-21T11:11:07;100197.84;;;23.64;40.57
72558;BME280;60583;50.094;8.748;2023-11-21T11:13:32;100176.38;;;23.63;39.93
72558;BME280;60583;50.094;8.748;2023-11-21T11:15:59;100196.34;;;23.53;40.25
72558;BME280;60583;50.094;8.748;2023-11-21T11:18:29;100215.31;;;22.03;42.02
72558;BME280;60583;50.094;8.748;2023-11-21T11:21:00;100204.63;;;20.62;45.79
72558;BME280;60583;50.094;8.748;2023-11-21T11:26:42;100203.03;;;19.47;49.26
72558;BME280;60583;50.094;8.748;2023-11-21T11:29:31;100183.66;;;18.38;51.04
72558;BME280;60583;50.094;8.748;2023-11-21T11:32:20;100172.78;;;17.79;52.18
72558;BME280;60583;50.094;8.748;2023-11-21T11:35:06;100206.94;;;17.19;54.97
72558;BME280;60583;50.094;8.748;2023-11-21T11:37:32;100207.66;;;16.98;56.72
72558;BME280;60583;50.094;8.748;2023-11-21T11:39:59;100188.13;;;16.57;58.27
72558;BME280;60583;50.094;8.748;2023-11-21T11:42:26;100202.34;;;16.13;57.08
72558;BME280;60583;50.094;8.748;2023-11-21T11:44:52;100208.50;;;16.14;57.67
72558;BME280;60583;50.094;8.748;2023-11-21T11:47:28;100154.69;;;15.46;59.59
72558;BME280;60583;50.094;8.748;2023-11-21T11:49:59;100218.22;;;15.52;60.87
72558;BME280;60583;50.094;8.748;2023-11-21T11:52:45;100198.00;;;15.14;62.98
72558;BME280;60583;50.094;8.748;2023-11-21T11:55:12;100198.31;;;14.95;63.41
72558;BME280;60583;50.094;8.748;2023-11-21T11:57:40;100205.81;;;14.63;65.67
72558;BME280;60583;50.094;8.748;2023-11-21T12:00:19;100207.84;;;14.67;65.87
72558;BME280;60583;50.094;8.748;2023-11-21T12:02:51;100161.53;;;14.13;66.54
72558;BME280;60583;50.094;8.748;2023-11-21T12:05:18;100209.50;;;14.39;67.31
72558;BME280;60583;50.094;8.748;2023-11-21T12:10:17;100229.00;;;14.28;69.22
72558;BME280;60583;50.094;8.748;2023-11-21T12:12:45;100212.56;;;14.06;69.42
72558;BME280;60583;50.094;8.748;2023-11-21T12:15:12;100218.47;;;13.96;69.20
72558;BME280;60583;50.094;8.748;2023-11-21T12:17:38;100217.44;;;13.79;70.37
72558;BME280;60583;50.094;8.748;2023-11-21T12:20:05;100220.84;;;13.68;69.98
72558;BME280;60583;50.094;8.748;2023-11-21T12:22:47;100235.06;;;13.51;69.71
72558;BME280;60583;50.094;8.748;2023-11-21T12:25:17;100235.66;;;13.53;70.00
72558;BME280;60583;50.094;8.748;2023-11-21T12:27:53;100241.97;;;13.58;69.98
72558;BME280;60583;50.094;8.748;2023-11-21T12:30:23;100215.84;;;13.11;71.03
72558;BME280;60583;50.094;8.748;2023-11-21T12:32:51;100224.94;;;13.03;71.83
72558;BME280;60583;50.094;8.748;2023-11-21T12:35:18;100229.13;;;12.93;72.08
72558;BME280;60583;50.094;8.748;2023-11-21T12:37:45;100252.13;;;13.07;71.96
72558;BME280;60583;50.094;8.748;2023-11-21T12:40:12;100246.38;;;13.03;72.45
72558;BME280;60583;50.094;8.748;2023-11-21T12:47:42;100249.91;;;12.97;73.67
72558;BME280;60583;50.094;8.748;2023-11-21T12:50:09;100264.69;;;13.00;74.26
72558;BME280;60583;50.094;8.748;2023-11-21T12:52:45;100269.69;;;12.96;73.89
72558;BME280;60583;50.094;8.748;2023-11-21T12:55:22;100278.16;;;12.87;74.60
72558;BME280;60583;50.094;8.748;2023-11-21T12:57:49;100267.34;;;12.75;73.88
72558;BME280;60583;50.094;8.748;2023-11-21T13:00:18;100262.06;;;12.62;73.74
72558;BME280;60583;50.094;8.748;2023-11-21T13:02:56;100241.38;;;12.44;74.15
72558;BME280;60583;50.094;8.748;2023-11-21T13:05:36;100271.00;;;12.49;75.21
72558;BME280;60583;50.094;8.748;2023-11-21T13:08:06;100285.59;;;12.53;75.36